Time;durP1;ratioP1;P1;durP2;ratioP2;P2;SDS_P1;SDS_P2;PMS_P1;PMS_P2;Temp;Humidity;BMP_temperature;BMP_pressure;BME280_temperature;BME280_humidity;BME280_pressure;Samples;Min_cycle;Max_cycle;Signal;HPM_P1;HPM_P2
2024/01/06 00:00:27;;;;;;;8.95;6.15;;;;;;;4.92;100.00;96442.31;1224703;75;2926313;-67
2024/01/06 00:03:00;;;;;;;9.60;6.40;;;;;;;4.92;100.00;96447.72;1225017;75;2914052;-68
2024/01/06 00:05:33;;;;;;;8.95;6.15;;;;;;;4.94;100.00;96449.97;1224648;83;2920841;-65
2024/01/06 00:08:06;;;;;;;12.55;8.20;;;;;;;4.66;100.00;96439.38;1225069;75;2917147;-65
2024/01/06 00:10:39;;;;;;;14.65;9.60;;;;;;;4.64;100.00;96436.38;1225269;75;2914516;-68
2024/01/06 00:13:13;;;;;;;12.70;8.25;;;;;;;4.77;100.00;96431.44;1224456;75;2921281;-69
2024/01/06 00:15:49;;;;;;;11.65;7.30;;;;;;;4.97;100.00;96443.63;1224981;75;2917826;-67
2024/01/06 00:18:21;;;;;;;9.35;6.35;;;;;;;5.02;100.00;96430.13;1225118;75;2918163;-66
2024/01/06 00:20:54;;;;;;;7.75;5.50;;;;;;;5.07;100.00;96437.63;1224003;75;2920663;-67
2024/01/06 00:23:27;;;;;;;6.70;4.70;;;;;;;5.10;100.00;96439.41;1225161;75;2918783;-67
2024/01/06 00:26:00;;;;;;;9.10;6.10;;;;;;;4.92;100.00;96434.16;1225454;75;2913634;-66
2024/01/06 00:28:33;;;;;;;10.40;6.30;;;;;;;4.79;100.00;96437.16;1224819;75;2922030;-66
2024/01/06 00:31:11;;;;;;;9.60;6.40;;;;;;;5.00;100.00;96443.41;1224319;75;2929104;-66
2024/01/06 00:33:44;;;;;;;8.40;5.70;;;;;;;4.87;100.00;96441.00;1225160;75;2919704;-65
2024/01/06 00:36:17;;;;;;;7.90;4.90;;;;;;;5.03;100.00;96444.47;1223788;75;2919546;-68
2024/01/06 00:38:49;;;;;;;7.30;4.85;;;;;;;5.15;100.00;96439.94;1224950;75;2914737;-68
2024/01/06 00:41:22;;;;;;;7.35;5.00;;;;;;;4.94;100.00;96442.59;1225392;75;2919774;-66
2024/01/06 00:43:55;;;;;;;8.75;5.75;;;;;;;5.11;100.00;96440.91;1224505;75;2920297;-66
2024/01/06 00:46:30;;;;;;;8.25;5.60;;;;;;;5.03;100.00;96431.66;1225548;75;2913971;-66
2024/01/06 00:49:03;;;;;;;9.30;5.60;;;;;;;5.07;100.00;96431.44;1225000;75;2915700;-65
2024/01/06 00:51:36;;;;;;;9.60;6.30;;;;;;;4.92;100.00;96439.59;1225046;75;2918286;-67
2024/01/06 00:54:09;;;;;;;11.05;6.70;;;;;;;4.93;100.00;96430.25;1225408;75;2920253;-66
2024/01/06 00:56:42;;;;;;;8.80;5.80;;;;;;;5.10;100.00;96431.28;1225398;75;2919878;-66
2024/01/06 00:59:15;;;;;;;12.90;6.60;;;;;;;4.79;100.00;96426.31;1224743;75;2935433;-67
2024/01/06 01:01:50;;;;;;;12.40;8.40;;;;;;;4.69;100.00;96420.22;1225117;75;2915107;-69
2024/01/06 01:04:23;;;;;;;14.30;9.15;;;;;;;4.89;100.00;96416.88;1224991;75;2916587;-66
2024/01/06 01:06:56;;;;;;;10.75;7.20;;;;;;;5.08;100.00;96417.44;1224835;75;2926207;-69
2024/01/06 01:09:28;;;;;;;8.75;5.90;;;;;;;5.14;100.00;96417.50;1224109;75;2918109;-67
2024/01/06 01:12:01;;;;;;;6.45;4.80;;;;;;;5.15;100.00;96416.31;1224862;75;2918034;-66
2024/01/06 01:14:34;;;;;;;8.80;5.15;;;;;;;5.07;100.00;96420.59;1224974;75;2920968;-68
2024/01/06 01:17:10;;;;;;;6.70;4.05;;;;;;;5.05;100.00;96410.22;1225218;75;2913569;-67
2024/01/06 01:19:42;;;;;;;6.50;4.50;;;;;;;5.06;100.00;96416.41;1224783;75;2920877;-67
2024/01/06 01:22:15;;;;;;;8.65;4.75;;;;;;;5.14;100.00;96412.06;1224046;75;2917638;-67
2024/01/06 01:24:48;;;;;;;6.65;4.05;;;;;;;5.11;100.00;96411.06;1225735;75;2914171;-67
2024/01/06 01:27:21;;;;;;;10.30;6.70;;;;;;;4.90;100.00;96404.06;1225586;75;2916726;-65
2024/01/06 01:29:54;;;;;;;12.80;7.65;;;;;;;4.86;100.00;96403.50;1224922;75;2921779;-68
2024/01/06 01:32:30;;;;;;;8.55;6.30;;;;;;;5.15;100.00;96396.53;1225502;75;2917025;-69
2024/01/06 01:35:03;;;;;;;7.90;5.35;;;;;;;5.07;100.00;96390.75;1224429;75;2940543;-66
2024/01/06 01:37:35;;;;;;;9.05;6.30;;;;;;;4.76;100.00;96380.41;1225060;75;2919561;-65
2024/01/06 01:40:10;;;;;;;8.85;6.90;;;;;;;4.85;100.00;96389.19;1225170;75;2914702;-66
2024/01/06 01:42:44;;;;;;;13.05;6.55;;;;;;;4.97;100.00;96384.69;1224293;75;2925644;-69
2024/01/06 01:45:17;;;;;;;11.75;7.50;;;;;;;4.87;100.00;96383.31;1224979;75;2921103;-68
2024/01/06 01:47:53;;;;;;;13.25;8.10;;;;;;;4.95;100.00;96381.69;1225400;75;2915626;-66
2024/01/06 01:50:27;;;;;;;10.70;6.50;;;;;;;5.05;100.00;96374.97;1224930;75;2917439;-69
2024/01/06 01:53:01;;;;;;;10.15;6.30;;;;;;;5.11;100.00;96367.66;1224760;75;2917641;-68
2024/01/06 01:55:33;;;;;;;13.60;8.05;;;;;;;4.74;100.00;96364.63;1224167;75;2920405;-67
2024/01/06 01:58:08;;;;;;;17.20;10.90;;;;;;;4.65;100.00;96365.44;1225080;75;2923013;-67
2024/01/06 02:00:41;;;;;;;15.15;9.80;;;;;;;4.83;100.00;96363.75;1225104;75;2917610;-67
2024/01/06 02:03:19;;;;;;;13.40;8.85;;;;;;;4.80;100.00;96351.16;1224807;75;2922458;-65
2024/01/06 02:05:52;;;;;;;13.20;8.90;;;;;;;4.86;100.00;96352.72;1225158;75;2922806;-67
2024/01/06 02:08:25;;;;;;;12.95;8.05;;;;;;;4.94;100.00;96346.94;1224603;75;2928658;-67
2024/01/06 02:10:59;;;;;;;10.30;6.75;;;;;;;5.03;100.00;96346.81;1225549;75;2918630;-67
2024/01/06 02:13:37;;;;;;;9.90;6.50;;;;;;;5.01;100.00;96341.88;1224470;75;2921525;-67
2024/01/06 02:16:11;;;;;;;7.60;5.25;;;;;;;5.10;100.00;96351.88;1224847;75;2914448;-68
2024/01/06 02:18:46;;;;;;;6.15;4.50;;;;;;;5.12;100.00;96343.97;1224462;75;2919762;-68
2024/01/06 02:21:20;;;;;;;7.35;5.10;;;;;;;5.00;100.00;96337.63;1225373;75;2922410;-66
2024/01/06 02:23:56;;;;;;;7.10;4.75;;;;;;;5.14;100.00;96338.84;1224740;75;2927180;-69
2024/01/06 02:26:29;;;;;;;6.25;4.20;;;;;;;5.02;100.00;96348.03;1225059;75;2923747;-65
2024/01/06 02:29:01;;;;;;;7.40;4.65;;;;;;;5.03;100.00;96336.72;1224904;75;2922600;-66
2024/01/06 02:31:34;;;;;;;7.75;4.95;;;;;;;5.04;100.00;96335.50;1225187;75;2874073;-69
2024/01/06 02:34:07;;;;;;;6.50;4.40;;;;;;;5.11;100.00;96331.66;1223900;75;2921007;-67
2024/01/06 02:36:40;;;;;;;5.55;4.00;;;;;;;5.02;100.00;96323.63;1225204;75;2913261;-65
2024/01/06 02:39:15;;;;;;;5.35;4.00;;;;;;;5.15;100.00;96329.50;1224886;75;2922285;-67
2024/01/06 02:41:48;;;;;;;10.55;6.10;;;;;;;4.71;100.00;96335.72;1224628;75;2921629;-67
2024/01/06 02:44:21;;;;;;;12.20;6.70;;;;;;;4.81;100.00;96329.00;1224268;75;2914819;-67
2024/01/06 02:46:54;;;;;;;9.80;6.30;;;;;;;4.94;100.00;96336.09;1224181;75;2919384;-66
2024/01/06 02:49:27;;;;;;;9.20;5.95;;;;;;;4.94;100.00;96331.41;1224715;75;2918903;-67
2024/01/06 02:51:59;;;;;;;9.95;6.90;;;;;;;4.70;100.00;96326.09;1225532;75;2921699;-66
2024/01/06 02:54:35;;;;;;;11.10;7.45;;;;;;;4.64;100.00;96330.66;1224894;75;2921239;-66
2024/01/06 02:57:08;;;;;;;12.95;8.30;;;;;;;4.75;100.00;96316.56;1224852;75;2917857;-68
2024/01/06 02:59:41;;;;;;;11.30;6.85;;;;;;;4.99;100.00;96330.00;1224982;75;2917848;-68
2024/01/06 03:02:14;;;;;;;9.70;6.25;;;;;;;5.01;100.00;96325.59;1224346;75;2919861;-66
2024/01/06 03:04:47;;;;;;;12.05;5.95;;;;;;;4.76;100.00;96320.75;1224259;75;2917347;-67
2024/01/06 03:07:20;;;;;;;10.40;6.15;;;;;;;4.93;100.00;96327.22;1223916;75;2924998;-67
2024/01/06 03:09:55;;;;;;;9.10;5.65;;;;;;;5.04;100.00;96316.50;1224536;75;2915722;-66
2024/01/06 03:12:28;;;;;;;6.35;4.35;;;;;;;5.04;100.00;96318.47;1224777;75;2921400;-67
2024/01/06 03:15:01;;;;;;;6.80;4.65;;;;;;;5.16;100.00;96322.84;1225195;75;2921171;-67
2024/01/06 03:17:34;;;;;;;5.75;3.95;;;;;;;5.18;100.00;96331.25;1224577;75;2936849;-67
2024/01/06 03:20:09;;;;;;;9.35;6.60;;;;;;;4.79;100.00;96327.97;1225392;75;2915418;-68
2024/01/06 03:22:42;;;;;;;10.45;6.50;;;;;;;4.80;100.00;96326.75;1224069;75;2924416;-69
2024/01/06 03:25:18;;;;;;;9.10;6.45;;;;;;;4.72;100.00;96323.66;1224748;75;2923566;-68
2024/01/06 03:27:51;;;;;;;8.55;5.95;;;;;;;4.96;100.00;96320.84;1225489;75;2924914;-67
2024/01/06 03:30:24;;;;;;;9.40;5.85;;;;;;;4.98;100.00;96329.25;1224469;75;2924830;-68
2024/01/06 03:32:56;;;;;;;12.90;7.00;;;;;;;4.76;100.00;96328.88;1225151;75;2914886;-69
2024/01/06 03:35:29;;;;;;;13.00;7.70;;;;;;;4.61;100.00;96326.19;1224968;75;2921257;-68
2024/01/06 03:38:02;;;;;;;9.30;6.70;;;;;;;4.59;100.00;96326.66;1224376;75;2917420;-67
2024/01/06 03:40:38;;;;;;;10.00;6.35;;;;;;;4.90;100.00;96326.16;1224252;75;2923529;-69
2024/01/06 03:43:11;;;;;;;7.90;5.20;;;;;;;4.90;100.00;96323.44;1225397;75;2920272;-67
2024/01/06 03:45:44;;;;;;;7.15;5.25;;;;;;;4.95;100.00;96330.16;1224916;75;2921220;-67
2024/01/06 03:48:16;;;;;;;6.70;4.60;;;;;;;4.85;100.00;96329.53;1225409;75;2915096;-66
2024/01/06 03:50:49;;;;;;;10.50;5.30;;;;;;;4.70;100.00;96332.25;1225219;75;2915402;-67
2024/01/06 03:53:22;;;;;;;9.45;5.90;;;;;;;4.59;100.00;96328.63;1224620;75;2922570;-70
2024/01/06 03:55:58;;;;;;;8.75;5.55;;;;;;;4.68;100.00;96325.81;1223581;75;2925113;-67
2024/01/06 03:58:30;;;;;;;11.10;6.00;;;;;;;4.49;100.00;96333.38;1224375;75;2930666;-66
2024/01/06 04:01:03;;;;;;;11.40;7.40;;;;;;;4.36;100.00;96333.66;1224524;75;2926220;-68
2024/01/06 04:03:36;;;;;;;11.40;8.60;;;;;;;4.33;100.00;96331.91;1222850;75;3038473;-69
2024/01/06 04:06:09;;;;;;;10.55;7.40;;;;;;;4.55;100.00;96338.91;1224958;75;2914247;-69
2024/01/06 04:08:44;;;;;;;11.55;7.00;;;;;;;4.78;100.00;96343.47;1224292;75;2920310;-67
2024/01/06 04:11:19;;;;;;;9.95;6.75;;;;;;;4.86;100.00;96336.47;1222608;75;2926747;-67
2024/01/06 04:13:52;;;;;;;9.00;5.75;;;;;;;4.75;100.00;96338.25;1225022;75;2918499;-68
2024/01/06 04:16:25;;;;;;;7.25;5.50;;;;;;;4.74;100.00;96336.75;1224497;75;2921307;-69
2024/01/06 04:18:58;;;;;;;9.15;5.55;;;;;;;4.80;100.00;96337.59;1225124;67;2925240;-64
2024/01/06 04:21:30;;;;;;;8.15;5.40;;;;;;;4.91;100.00;96340.47;1224674;75;2913690;-69
2024/01/06 04:24:03;;;;;;;7.95;4.90;;;;;;;4.97;100.00;96340.56;1224876;75;2922763;-68
2024/01/06 04:26:39;;;;;;;5.50;4.05;;;;;;;4.98;100.00;96337.38;1224251;75;2922307;-67
2024/01/06 04:29:11;;;;;;;8.15;4.70;;;;;;;4.87;100.00;96329.81;1224846;75;2920995;-68
2024/01/06 04:31:45;;;;;;;8.90;5.95;;;;;;;4.69;100.00;96328.06;1224993;75;2925540;-69
2024/01/06 04:34:18;;;;;;;7.70;5.45;;;;;;;4.93;100.00;96323.72;1224622;75;2917560;-65
2024/01/06 04:36:50;;;;;;;7.80;5.20;;;;;;;4.91;100.00;96326.91;1225620;75;2920448;-67
2024/01/06 04:39:23;;;;;;;7.85;5.15;;;;;;;5.01;100.00;96331.00;1224438;75;2920273;-67
2024/01/06 04:41:59;;;;;;;7.40;4.85;;;;;;;4.95;100.00;96332.88;1224290;75;2916914;-68
2024/01/06 04:44:32;;;;;;;5.90;4.80;;;;;;;4.82;100.00;96343.28;1224853;75;2922679;-69
2024/01/06 04:47:05;;;;;;;10.10;6.45;;;;;;;4.74;100.00;96347.59;1224453;75;2917567;-66
2024/01/06 04:49:37;;;;;;;8.55;6.05;;;;;;;4.91;100.00;96337.78;1224696;75;2915894;-66
2024/01/06 04:52:10;;;;;;;7.45;5.60;;;;;;;4.97;100.00;96337.84;1224301;75;2918631;-70
2024/01/06 04:54:43;;;;;;;7.95;5.80;;;;;;;4.99;100.00;96344.28;1224624;75;2918123;-67
2024/01/06 04:57:19;;;;;;;7.45;4.90;;;;;;;5.07;100.00;96344.66;1224529;75;2917888;-68
2024/01/06 04:59:52;;;;;;;6.45;4.50;;;;;;;5.01;100.00;96341.88;1225232;75;2907312;-64
2024/01/06 05:02:25;;;;;;;6.20;4.25;;;;;;;5.01;100.00;96347.28;1224372;75;2925991;-66
2024/01/06 05:04:57;;;;;;;8.90;5.35;;;;;;;4.78;100.00;96348.16;1224775;75;2913677;-67
2024/01/06 05:07:30;;;;;;;13.50;8.00;;;;;;;4.60;100.00;96355.25;1224369;75;2924544;-68
2024/01/06 05:10:03;;;;;;;14.70;10.00;;;;;;;4.46;100.00;96345.91;1224508;75;2929516;-67
2024/01/06 05:12:38;;;;;;;14.00;9.35;;;;;;;4.69;100.00;96349.75;1225193;75;2926842;-68
2024/01/06 05:15:12;;;;;;;12.55;8.40;;;;;;;4.68;100.00;96348.25;1224888;75;2920390;-69
2024/01/06 05:17:45;;;;;;;11.15;7.85;;;;;;;4.71;100.00;96346.56;1223885;75;2922393;-67
2024/01/06 05:20:18;;;;;;;10.30;6.70;;;;;;;4.78;100.00;96348.88;1224472;75;2917735;-67
2024/01/06 05:22:51;;;;;;;8.45;6.05;;;;;;;4.90;100.00;96355.97;1224286;75;2917031;-65
2024/01/06 05:25:24;;;;;;;8.20;5.95;;;;;;;4.78;100.00;96348.16;1224812;75;2918255;-68
2024/01/06 05:28:01;;;;;;;8.20;5.90;;;;;;;4.96;100.00;96350.66;1224972;75;2917970;-67
2024/01/06 05:30:34;;;;;;;7.40;5.70;;;;;;;5.04;100.00;96348.31;1225091;75;2916151;-66
2024/01/06 05:33:07;;;;;;;6.35;4.35;;;;;;;4.98;100.00;96356.38;1225262;75;2916623;-68
2024/01/06 05:35:40;;;;;;;6.35;4.65;;;;;;;5.08;100.00;96354.28;1224229;75;2915381;-69
2024/01/06 05:38:13;;;;;;;7.60;4.95;;;;;;;4.86;100.00;96357.41;1223705;75;2929858;-67
2024/01/06 05:40:46;;;;;;;6.15;4.45;;;;;;;4.99;100.00;96357.13;1224313;75;2923080;-68
2024/01/06 05:43:21;;;;;;;5.35;3.95;;;;;;;5.06;100.00;96354.00;1224678;75;2916862;-67
2024/01/06 05:45:54;;;;;;;5.15;3.70;;;;;;;5.11;100.00;96366.91;1224431;75;2920395;-67
2024/01/06 05:48:27;;;;;;;4.90;3.50;;;;;;;5.07;100.00;96358.94;1224750;75;2916782;-66
2024/01/06 05:51:00;;;;;;;5.25;3.55;;;;;;;5.12;100.00;96352.13;1225321;75;2918386;-65
2024/01/06 05:53:32;;;;;;;4.40;3.40;;;;;;;5.15;100.00;96355.84;1224738;75;2920831;-67
2024/01/06 05:56:06;;;;;;;6.00;3.70;;;;;;;5.13;100.00;96364.47;1224282;75;2922220;-67
2024/01/06 05:58:41;;;;;;;4.60;3.40;;;;;;;5.10;100.00;96365.44;1225017;75;2924247;-68
2024/01/06 06:01:14;;;;;;;4.15;3.15;;;;;;;5.01;100.00;96352.72;1222721;75;2933242;-66
2024/01/06 06:03:46;;;;;;;6.50;4.30;;;;;;;4.83;100.00;96358.34;1224878;75;2921519;-66
2024/01/06 06:06:19;;;;;;;6.80;4.75;;;;;;;4.84;100.00;96355.16;1224833;75;2916819;-68
2024/01/06 06:08:52;;;;;;;6.35;4.40;;;;;;;4.97;100.00;96352.16;1224965;75;2930151;-68
2024/01/06 06:11:25;;;;;;;8.90;5.25;;;;;;;4.84;100.00;96349.00;1224489;75;2926185;-66
2024/01/06 06:14:02;;;;;;;8.75;6.30;;;;;;;4.74;100.00;96350.28;1225320;75;2935128;-69
2024/01/06 06:16:35;;;;;;;8.45;5.50;;;;;;;4.96;100.00;96360.78;1224869;75;2925163;-67
2024/01/06 06:19:08;;;;;;;8.55;5.00;;;;;;;5.06;100.00;96362.91;1224579;75;2919706;-66
2024/01/06 06:21:41;;;;;;;6.00;4.50;;;;;;;5.04;100.00;96356.44;1224646;75;2920650;-66
2024/01/06 06:24:14;;;;;;;6.80;4.30;;;;;;;5.11;100.00;96356.81;1224740;75;2924424;-67
2024/01/06 06:26:46;;;;;;;5.35;3.95;;;;;;;5.11;100.00;96356.06;1225232;75;2922692;-67
2024/01/06 06:29:22;;;;;;;6.35;4.40;;;;;;;4.83;100.00;96361.78;1224525;75;2919900;-66
2024/01/06 06:31:55;;;;;;;6.50;4.90;;;;;;;4.81;100.00;96352.63;1224560;75;2918250;-66
2024/01/06 06:34:28;;;;;;;7.30;4.75;;;;;;;4.85;100.00;96355.91;1224954;75;2926717;-68
2024/01/06 06:37:01;;;;;;;5.95;4.60;;;;;;;4.95;100.00;96356.53;1223322;75;2914786;-66
2024/01/06 06:39:35;;;;;;;6.45;4.95;;;;;;;4.74;100.00;96359.19;1224791;75;2924129;-67
2024/01/06 06:42:08;;;;;;;9.00;6.00;;;;;;;4.75;100.00;96366.09;1225055;75;2924311;-66
2024/01/06 06:44:43;;;;;;;8.40;5.95;;;;;;;4.73;100.00;96365.06;1224789;75;2924397;-68
2024/01/06 06:47:16;;;;;;;9.85;5.85;;;;;;;4.93;100.00;96365.16;1223754;75;2922992;-66
2024/01/06 06:49:49;;;;;;;6.25;4.60;;;;;;;5.08;100.00;96363.19;1224927;75;2922284;-67
2024/01/06 06:52:22;;;;;;;6.55;4.90;;;;;;;5.00;100.00;96359.34;1224985;75;2923150;-67
2024/01/06 06:54:55;;;;;;;6.15;4.80;;;;;;;5.10;100.00;96358.03;1224964;75;2919112;-67
2024/01/06 06:57:28;;;;;;;5.75;4.30;;;;;;;5.04;100.00;96349.06;1224441;75;2919938;-67
2024/01/06 07:00:04;;;;;;;7.60;4.60;;;;;;;4.94;100.00;96344.97;1224495;75;2917029;-67
2024/01/06 07:02:37;;;;;;;5.80;4.55;;;;;;;5.06;100.00;96354.00;1225424;75;2919163;-67
2024/01/06 07:05:11;;;;;;;7.50;5.75;;;;;;;4.87;100.00;96353.47;1225574;75;2917415;-67
2024/01/06 07:07:46;;;;;;;7.40;5.70;;;;;;;5.02;100.00;96358.88;1224402;75;2917334;-66
2024/01/06 07:10:19;;;;;;;7.30;5.50;;;;;;;5.07;100.00;96353.53;1224712;75;2918319;-68
2024/01/06 07:12:52;;;;;;;8.25;6.85;;;;;;;4.85;100.00;96356.66;1223450;75;2927820;-67
2024/01/06 07:15:27;;;;;;;10.50;7.50;;;;;;;4.91;100.00;96360.19;1224818;75;2921842;-64
2024/01/06 07:18:00;;;;;;;10.10;7.45;;;;;;;4.89;100.00;96367.31;1224349;75;2920752;-67
2024/01/06 07:20:33;;;;;;;10.80;7.85;;;;;;;4.73;100.00;96371.25;1224424;75;2918319;-66
2024/01/06 07:23:06;;;;;;;11.80;8.90;;;;;;;4.63;100.00;96376.00;1224583;75;2920725;-67
2024/01/06 07:25:39;;;;;;;14.75;9.70;;;;;;;4.67;100.00;96368.44;1224681;75;2914760;-67
2024/01/06 07:28:12;;;;;;;16.05;10.90;;;;;;;4.56;100.00;96381.06;1223973;75;2922102;-68
2024/01/06 07:30:47;;;;;;;13.80;10.65;;;;;;;4.54;100.00;96378.06;1224169;75;2921041;-65
2024/01/06 07:33:20;;;;;;;18.75;11.15;;;;;;;4.43;100.00;96373.94;1224282;75;2923956;-66
2024/01/06 07:35:55;;;;;;;12.30;9.60;;;;;;;4.50;100.00;96383.69;1207165;75;4083185;-66
2024/01/06 07:38:28;;;;;;;12.95;9.35;;;;;;;4.63;100.00;96380.69;1218246;75;2906476;-66
2024/01/06 07:41:01;;;;;;;11.10;8.30;;;;;;;4.70;100.00;96372.19;1221030;75;2943368;-68
2024/01/06 07:43:34;;;;;;;9.55;7.30;;;;;;;4.80;100.00;96372.84;1224244;75;2922768;-68
2024/01/06 07:46:09;;;;;;;9.00;6.05;;;;;;;4.83;100.00;96369.19;1208732;75;4200045;-69
2024/01/06 07:48:42;;;;;;;8.00;5.90;;;;;;;5.02;100.00;96369.72;1224041;75;2928106;-66
2024/01/06 07:51:15;;;;;;;6.85;5.65;;;;;;;5.05;100.00;96358.69;1225356;75;2939685;-65
2024/01/06 07:53:48;;;;;;;10.70;6.45;;;;;;;4.95;100.00;96365.44;1224377;75;2917160;-67
2024/01/06 07:56:21;;;;;;;10.00;6.70;;;;;;;5.10;100.00;96363.47;1224444;75;2917927;-66
2024/01/06 07:58:54;;;;;;;7.90;5.95;;;;;;;5.09;100.00;96369.34;1223778;75;2921266;-66
2024/01/06 08:01:29;;;;;;;10.75;6.85;;;;;;;4.93;100.00;96375.25;1224946;75;2919648;-68
2024/01/06 08:04:03;;;;;;;9.15;6.75;;;;;;;4.94;100.00;96374.78;1224587;75;2919084;-67
2024/01/06 08:06:38;;;;;;;13.40;9.25;;;;;;;4.74;100.00;96366.56;1223922;75;2929029;-66
2024/01/06 08:09:11;;;;;;;13.95;10.20;;;;;;;4.70;100.00;96367.50;1225055;75;2919341;-68
2024/01/06 08:11:47;;;;;;;14.80;11.45;;;;;;;4.58;100.00;96365.81;1224721;75;2925476;-69
2024/01/06 08:14:20;;;;;;;17.95;12.85;;;;;;;4.58;100.00;96373.22;1225238;67;2924224;-69
2024/01/06 08:16:55;;;;;;;16.55;12.30;;;;;;;4.56;100.00;96370.97;1224010;83;2922652;-66
2024/01/06 08:19:29;;;;;;;16.25;11.60;;;;;;;4.69;100.00;96370.69;1225002;75;2914976;-66
2024/01/06 08:22:02;;;;;;;14.05;11.15;;;;;;;4.84;100.00;96370.69;1224511;75;2924037;-66
2024/01/06 08:24:35;;;;;;;15.00;10.65;;;;;;;4.72;100.00;96367.03;1224331;75;2915026;-65
2024/01/06 08:27:08;;;;;;;13.95;9.90;;;;;;;4.74;100.00;96371.97;1223642;75;2926570;-66
2024/01/06 08:29:42;;;;;;;17.65;9.85;;;;;;;4.84;100.00;96379.56;1224762;75;2921013;-68
2024/01/06 08:32:17;;;;;;;18.30;10.90;;;;;;;4.71;100.00;96368.25;1224761;75;2919818;-68
2024/01/06 08:34:50;;;;;;;13.70;9.50;;;;;;;4.99;100.00;96374.13;1224503;75;2921265;-69
2024/01/06 08:37:23;;;;;;;10.35;8.20;;;;;;;5.05;100.00;96374.19;1223899;75;2924874;-66
2024/01/06 08:39:56;;;;;;;9.15;6.55;;;;;;;5.17;100.00;96375.88;1224704;75;2925468;-66
2024/01/06 08:42:29;;;;;;;8.65;6.90;;;;;;;5.19;100.00;96376.16;1223882;75;2918064;-67
2024/01/06 08:45:02;;;;;;;8.60;6.35;;;;;;;5.26;100.00;96380.44;1223868;75;2923133;-67
2024/01/06 08:47:37;;;;;;;11.90;7.10;;;;;;;5.15;100.00;96382.97;1223022;75;2922253;-68
2024/01/06 08:50:11;;;;;;;11.05;7.20;;;;;;;5.21;100.00;96384.56;1223236;75;2923455;-67
2024/01/06 08:52:45;;;;;;;9.65;6.80;;;;;;;5.24;100.00;96382.88;1224412;75;2925930;-66
2024/01/06 08:55:18;;;;;;;8.80;6.80;;;;;;;5.42;100.00;96390.06;1224624;75;2928220;-66
2024/01/06 08:57:50;;;;;;;8.25;6.15;;;;;;;5.41;100.00;96391.25;1224004;75;2922473;-67
2024/01/06 09:00:23;;;;;;;11.60;8.75;;;;;;;5.32;100.00;96398.31;1224032;75;2920093;-65
2024/01/06 09:02:59;;;;;;;18.60;13.45;;;;;;;5.39;100.00;96390.97;1188063;75;5814824;-68
2024/01/06 09:05:33;;;;;;;16.35;12.60;;;;;;;5.57;100.00;96401.59;1224190;75;2928393;-66
2024/01/06 09:08:07;;;;;;;13.40;10.90;;;;;;;5.64;100.00;96397.75;1224817;75;2887914;-66
2024/01/06 09:10:40;;;;;;;13.15;10.25;;;;;;;5.73;100.00;96401.09;1224255;75;2942018;-68
2024/01/06 09:13:13;;;;;;;11.35;9.55;;;;;;;5.66;100.00;96398.03;1224970;75;2922614;-67
2024/01/06 09:15:46;;;;;;;13.75;10.30;;;;;;;5.55;100.00;96412.94;1224113;75;2919227;-66
2024/01/06 09:18:22;;;;;;;16.15;11.90;;;;;;;5.23;100.00;96417.41;1224480;75;2916930;-67
2024/01/06 09:20:55;;;;;;;15.80;10.55;;;;;;;5.29;100.00;96410.09;1224772;75;2930772;-65
2024/01/06 09:23:28;;;;;;;14.90;10.35;;;;;;;5.52;100.00;96413.13;1224740;75;2919075;-68
2024/01/06 09:26:00;;;;;;;13.55;11.15;;;;;;;5.63;100.00;96413.31;1224819;75;2918739;-66
2024/01/06 09:28:33;;;;;;;17.80;13.30;;;;;;;5.60;100.00;96406.09;1224519;75;2922889;-66
2024/01/06 09:31:06;;;;;;;16.60;12.10;;;;;;;5.55;100.00;96406.75;1224710;75;2943878;-66
2024/01/06 09:33:42;;;;;;;14.05;11.45;;;;;;;5.56;100.00;96402.84;1224704;75;2929762;-65
2024/01/06 09:36:15;;;;;;;16.75;12.35;;;;;;;5.63;100.00;96409.81;1224267;75;2937375;-66
2024/01/06 09:38:47;;;;;;;11.85;9.45;;;;;;;5.97;100.00;96403.66;1225101;75;2924472;-66
2024/01/06 09:41:21;;;;;;;11.60;8.10;;;;;;;6.10;100.00;96402.56;1224616;75;2930236;-66
2024/01/06 09:43:54;;;;;;;8.45;6.95;;;;;;;6.23;100.00;96405.69;1223909;75;2952006;-67
2024/01/06 09:46:30;;;;;;;8.20;6.30;;;;;;;6.20;100.00;96403.91;1225138;75;2929333;-68
2024/01/06 09:49:06;;;;;;;9.00;7.15;;;;;;;5.94;100.00;96412.00;1224293;75;2916918;-68
2024/01/06 09:51:40;;;;;;;9.75;7.10;;;;;;;5.90;100.00;96403.28;1224534;75;2926961;-67
2024/01/06 09:54:15;;;;;;;9.75;7.30;;;;;;;5.87;100.00;96402.25;1224455;75;2932012;-66
2024/01/06 09:56:51;;;;;;;13.35;8.15;;;;;;;5.77;100.00;96403.59;1224596;75;2918708;-66
2024/01/06 09:59:23;;;;;;;15.65;8.85;;;;;;;5.67;100.00;96402.97;1223337;75;2919041;-67
2024/01/06 10:01:57;;;;;;;14.00;8.35;;;;;;;5.81;100.00;96406.13;1224207;75;2924346;-67
2024/01/06 10:04:32;;;;;;;13.10;8.55;;;;;;;5.57;100.00;96400.88;1224217;75;2925188;-67
2024/01/06 10:07:05;;;;;;;18.10;10.85;;;;;;;5.61;100.00;96396.00;1223677;75;2924359;-66
2024/01/06 10:09:38;;;;;;;15.95;10.45;;;;;;;5.67;100.00;96394.09;1222633;75;2934937;-69
2024/01/06 10:12:12;;;;;;;13.85;8.60;;;;;;;6.09;100.00;96387.50;1224386;75;2927402;-69
2024/01/06 10:14:47;;;;;;;12.25;7.80;;;;;;;5.96;100.00;96385.09;1224336;75;2916676;-66
2024/01/06 10:17:21;;;;;;;14.05;8.15;;;;;;;6.07;100.00;96373.63;1224635;75;2919741;-66
2024/01/06 10:19:57;;;;;;;10.80;7.20;;;;;;;6.06;100.00;96391.16;1224700;75;2920807;-68
2024/01/06 10:22:30;;;;;;;12.35;7.30;;;;;;;6.23;100.00;96381.22;1224796;75;2915318;-67
2024/01/06 10:25:03;;;;;;;12.55;7.30;;;;;;;6.11;100.00;96388.50;1224661;75;2927139;-66
2024/01/06 10:27:38;;;;;;;14.70;9.25;;;;;;;5.97;100.00;96392.03;1224838;75;2913525;-68
2024/01/06 10:30:17;;;;;;;14.60;9.60;;;;;;;5.95;100.00;96386.34;1224533;75;2918443;-66
2024/01/06 10:32:50;;;;;;;15.95;9.90;;;;;;;6.09;100.00;96380.09;1224504;75;2918208;-69
2024/01/06 10:35:28;;;;;;;15.40;10.30;;;;;;;5.79;100.00;96375.97;1223680;75;2923985;-69
2024/01/06 10:38:01;;;;;;;16.60;11.30;;;;;;;5.86;100.00;96381.75;1225450;75;2916251;-66
2024/01/06 10:40:34;;;;;;;12.75;8.55;;;;;;;6.09;100.00;96376.63;1224029;75;2923710;-68
2024/01/06 10:43:09;;;;;;;12.85;8.35;;;;;;;6.12;100.00;96376.41;1225486;75;2919431;-64
2024/01/06 10:45:42;;;;;;;12.05;7.35;;;;;;;6.30;100.00;96372.66;1224538;75;2928684;-68
2024/01/06 10:48:15;;;;;;;8.20;5.95;;;;;;;6.47;100.00;96375.56;1224092;75;2918648;-68
2024/01/06 10:50:53;;;;;;;8.20;6.10;;;;;;;6.33;100.00;96363.53;1223662;75;2872077;-70
2024/01/06 10:53:26;;;;;;;9.55;7.00;;;;;;;6.25;100.00;96365.19;1224028;75;2925449;-68
2024/01/06 10:56:01;;;;;;;14.30;9.70;;;;;;;6.11;100.00;96350.47;1196249;75;5179474;-66
2024/01/06 10:58:42;;;;;;;15.70;10.70;;;;;;;6.06;100.00;96355.81;1224258;75;2923323;-68
2024/01/06 11:01:15;;;;;;;16.00;9.95;;;;;;;6.28;100.00;96356.09;1224064;75;2928709;-68
2024/01/06 11:03:49;;;;;;;13.35;9.80;;;;;;;6.35;100.00;96358.38;1224003;75;2919475;-68
2024/01/06 11:06:25;;;;;;;12.55;8.95;;;;;;;6.25;100.00;96362.47;1224423;75;2925018;-67
2024/01/06 11:09:10;;;;;;;16.65;10.45;;;;;;;6.03;100.00;96354.06;1225098;75;2922474;-66
2024/01/06 11:11:43;;;;;;;20.30;13.35;;;;;;;5.87;100.00;96350.66;1223607;75;2922471;-65
2024/01/06 11:14:24;;;;;;;15.65;11.70;;;;;;;6.22;100.00;96344.41;1223903;75;2929045;-68
2024/01/06 11:16:57;;;;;;;13.50;9.45;;;;;;;6.30;100.00;96350.16;1223781;75;2915085;-67
2024/01/06 11:19:49;;;;;;;10.65;8.80;;;;;;;6.20;100.00;96344.13;1224234;75;2926793;-67
2024/01/06 11:22:33;;;;;;;11.25;8.60;;;;;;;6.31;100.00;96344.25;1223308;75;2935483;-67
2024/01/06 11:25:11;;;;;;;12.55;9.10;;;;;;;6.32;100.00;96345.00;1223650;75;2916507;-69
2024/01/06 11:27:47;;;;;;;11.20;8.00;;;;;;;6.40;100.00;96335.94;1224396;75;2913221;-68
2024/01/06 11:30:29;;;;;;;26.20;15.50;;;;;;;5.94;100.00;96333.22;1223640;75;2924856;-68
2024/01/06 11:33:02;;;;;;;21.95;14.10;;;;;;;5.86;100.00;96335.56;1224073;75;2920530;-67
2024/01/06 11:35:35;;;;;;;15.10;10.75;;;;;;;5.83;100.00;96325.66;1224406;75;2925797;-67
2024/01/06 11:38:12;;;;;;;13.15;9.50;;;;;;;6.15;100.00;96331.97;1224781;75;2916127;-66
2024/01/06 11:40:45;;;;;;;11.40;8.90;;;;;;;6.17;100.00;96323.34;1223950;75;2920868;-67